< < Back
Terminal Aerodrome Forecast


Current Version              Previous Versions:   1  2  3  4  5  6  7  8  9  

Terminal Aerodrome Forecast

111
FTUS44 KMRX 230523
TAFCHA
TAF
KCHA 230523Z 2306/2406 34004KT P6SM SKC
     FM231500 01010G16KT P6SM FEW150
     FM240100 00000KT P6SM SKC=

Latest METAR

327
SAUS80 KWBC 231300
MTRCHA
METAR KCHA 231253Z 36015KT 10SM CLR 13/02 A3002 RMK AO2 SLP163
T01330017


USA.gov is the U.S. government's official web portal to all federal, state and local government web resources and services.